Time;durP1;ratioP1;P1;durP2;ratioP2;P2;SDS_P1;SDS_P2;PMS_P1;PMS_P2;Temp;Humidity;BMP_temperature;BMP_pressure;BME280_temperature;BME280_humidity;BME280_pressure;Samples;Min_cycle;Max_cycle;Signal;HPM_P1;HPM_P2
2023/02/28 00:00:25;;;;;;;3.95;3.00;;;2.60;99.90;;;;;;5003003;28;20121;-42
2023/02/28 00:02:50;;;;;;;5.57;3.17;;;2.70;99.90;;;;;;5003085;28;20034;-42
2023/02/28 00:05:19;;;;;;;4.00;3.03;;;2.70;99.90;;;;;;5002900;28;20037;-42
2023/02/28 00:07:45;;;;;;;7.78;3.33;;;2.80;99.90;;;;;;5002423;28;20042;-42
2023/02/28 00:10:13;;;;;;;3.85;2.95;;;2.80;99.90;;;;;;5002833;28;20026;-42
2023/02/28 00:12:40;;;;;;;4.90;3.03;;;2.90;99.90;;;;;;5003162;28;20033;-43
2023/02/28 00:15:07;;;;;;;3.22;2.55;;;2.90;99.90;;;;;;5002689;28;20108;-42
2023/02/28 00:17:33;;;;;;;3.20;2.38;;;3.00;99.90;;;;;;5003136;28;20036;-43
2023/02/28 00:20:01;;;;;;;5.07;2.80;;;3.00;99.90;;;;;;5002261;28;20022;-42
2023/02/28 00:22:27;;;;;;;3.83;3.05;;;3.10;99.90;;;;;;5002767;28;20033;-42
2023/02/28 00:24:52;;;;;;;5.90;3.33;;;3.20;99.90;;;;;;5001749;28;20018;-42
2023/02/28 00:27:18;;;;;;;4.60;3.30;;;3.20;99.90;;;;;;5002747;28;20140;-43
2023/02/28 00:29:45;;;;;;;5.63;3.20;;;3.20;99.90;;;;;;5002147;28;20021;-43
2023/02/28 00:32:11;;;;;;;5.55;3.50;;;3.20;99.90;;;;;;5002230;28;20474;-44
2023/02/28 00:34:37;;;;;;;6.30;3.42;;;3.30;99.90;;;;;;5002485;28;20032;-44
2023/02/28 00:37:05;;;;;;;6.20;4.28;;;3.30;99.90;;;;;;5002775;28;20029;-44
2023/02/28 00:39:31;;;;;;;5.53;3.30;;;3.30;99.90;;;;;;5002277;28;20026;-43
2023/02/28 00:41:56;;;;;;;3.42;3.03;;;3.30;99.90;;;;;;5002366;28;20028;-43
2023/02/28 00:44:22;;;;;;;5.68;3.38;;;3.40;99.90;;;;;;5002582;28;20022;-43
2023/02/28 00:46:47;;;;;;;6.78;3.63;;;3.40;99.90;;;;;;5002203;28;20036;-43
2023/02/28 00:49:16;;;;;;;5.70;3.70;;;3.40;99.90;;;;;;5002824;28;20033;-44
2023/02/28 00:51:41;;;;;;;5.65;3.88;;;3.40;99.90;;;;;;5002453;28;20036;-42
2023/02/28 00:54:07;;;;;;;5.45;3.88;;;3.40;99.90;;;;;;5001977;28;20034;-43
2023/02/28 00:56:32;;;;;;;4.13;3.45;;;3.40;99.90;;;;;;5002211;28;20845;-43
2023/02/28 00:58:58;;;;;;;5.32;3.10;;;3.40;99.90;;;;;;5002040;28;20655;-44
2023/02/28 01:01:23;;;;;;;4.10;3.30;;;3.50;99.90;;;;;;5002003;28;20030;-42
2023/02/28 01:03:49;;;;;;;5.82;3.60;;;3.50;99.90;;;;;;5002018;28;20031;-43
2023/02/28 01:06:14;;;;;;;7.30;4.05;;;3.50;99.90;;;;;;5001816;28;20037;-43
2023/02/28 01:08:43;;;;;;;6.70;3.78;;;3.50;99.90;;;;;;5002071;28;20116;-44
2023/02/28 01:11:11;;;;;;;4.50;3.40;;;3.60;99.90;;;;;;5001439;28;20095;-44
2023/02/28 01:13:37;;;;;;;4.90;3.42;;;3.60;99.90;;;;;;5000723;28;20041;-42
2023/02/28 01:16:03;;;;;;;4.95;3.42;;;3.60;99.90;;;;;;5001525;28;20022;-42
2023/02/28 01:18:30;;;;;;;4.47;2.97;;;3.60;99.90;;;;;;5001802;28;20845;-42
2023/02/28 01:20:56;;;;;;;5.68;3.17;;;3.60;99.90;;;;;;5001135;28;20026;-43
2023/02/28 01:23:23;;;;;;;6.00;3.50;;;3.60;99.90;;;;;;5002464;28;20800;-42
2023/02/28 01:25:50;;;;;;;5.32;3.45;;;3.60;99.90;;;;;;5001533;28;20030;-43
2023/02/28 01:28:15;;;;;;;5.25;3.63;;;3.50;99.90;;;;;;5000742;28;20026;-43
2023/02/28 01:30:47;;;;;;;7.32;3.20;;;3.50;99.90;;;;;;5001532;28;20062;-43
2023/02/28 01:33:13;;;;;;;4.78;3.33;;;3.50;99.90;;;;;;5001537;28;20104;-43
2023/02/28 01:35:38;;;;;;;4.20;3.40;;;3.50;99.90;;;;;;5001783;28;20037;-43
2023/02/28 01:38:04;;;;;;;4.10;3.17;;;3.40;99.90;;;;;;5001285;28;20038;-43
2023/02/28 01:40:35;;;;;;;4.03;2.97;;;3.40;99.90;;;;;;4982303;28;20030;-43
2023/02/28 01:43:00;;;;;;;5.15;3.40;;;3.40;99.90;;;;;;4995427;28;20056;-42
2023/02/28 01:45:29;;;;;;;5.10;3.20;;;3.50;99.90;;;;;;5001458;28;20037;-42
2023/02/28 01:48:08;;;;;;;4.55;2.80;;;3.40;99.90;;;;;;5000976;28;20044;-42
2023/02/28 01:50:45;;;;;;;5.05;2.90;;;3.40;99.90;;;;;;5000985;28;20040;-41
2023/02/28 01:53:19;;;;;;;4.65;3.15;;;3.40;99.90;;;;;;5000919;28;20109;-42
2023/02/28 01:55:48;;;;;;;7.05;3.42;;;3.40;99.90;;;;;;5000344;28;20062;-43
2023/02/28 01:58:14;;;;;;;4.32;3.38;;;3.50;99.90;;;;;;5001092;28;20025;-43
2023/02/28 02:00:42;;;;;;;5.05;3.40;;;3.50;99.90;;;;;;5002007;28;20021;-43
2023/02/28 02:03:13;;;;;;;7.28;3.47;;;3.50;99.90;;;;;;5000531;28;20037;-43
2023/02/28 02:05:47;;;;;;;4.05;3.28;;;3.50;99.90;;;;;;5001768;28;20096;-43
2023/02/28 02:08:18;;;;;;;4.25;2.80;;;3.50;99.90;;;;;;5000796;28;20049;-42
2023/02/28 02:10:49;;;;;;;4.75;3.30;;;3.50;99.90;;;;;;5000605;28;20041;-43
2023/02/28 02:13:23;;;;;;;4.70;3.05;;;3.50;99.90;;;;;;5000136;28;20033;-42
2023/02/28 02:16:22;;;;;;;3.35;2.80;;;3.50;99.90;;;;;;5000172;28;20030;-42
2023/02/28 02:18:55;;;;;;;5.28;3.33;;;3.50;99.90;;;;;;5000049;28;20091;-43
2023/02/28 02:21:47;;;;;;;4.13;3.53;;;3.50;99.90;;;;;;5000293;28;20092;-43
2023/02/28 02:24:13;;;;;;;4.77;3.33;;;3.50;99.90;;;;;;5000149;28;20114;-43
2023/02/28 02:26:38;;;;;;;3.75;3.10;;;3.50;99.90;;;;;;5000419;28;20776;-43
2023/02/28 02:29:19;;;;;;;5.88;3.40;;;3.50;99.90;;;;;;5000203;28;20029;-42
2023/02/28 02:32:23;;;;;;;5.85;3.03;;;3.50;99.90;;;;;;4999743;28;20420;-42
2023/02/28 02:35:07;;;;;;;4.88;3.50;;;3.50;99.90;;;;;;4998955;28;20573;-41
2023/02/28 02:38:08;;;;;;;6.55;3.60;;;3.50;99.90;;;;;;4981141;28;20069;-43
2023/02/28 02:40:47;;;;;;;6.10;3.90;;;3.50;99.90;;;;;;4999619;28;20041;-43
2023/02/28 02:43:25;;;;;;;4.03;3.40;;;3.50;99.90;;;;;;5000411;28;20638;-42
2023/02/28 02:45:56;;;;;;;7.43;3.95;;;3.50;99.90;;;;;;4999490;28;20722;-43
2023/02/28 02:48:26;;;;;;;4.63;3.65;;;3.40;99.90;;;;;;5001268;28;20125;-43
2023/02/28 02:50:56;;;;;;;4.10;3.17;;;3.40;99.90;;;;;;5000179;28;20021;-43
2023/02/28 02:53:30;;;;;;;4.70;3.58;;;3.40;99.90;;;;;;5000282;28;20030;-43
2023/02/28 02:55:57;;;;;;;4.50;3.47;;;3.50;99.90;;;;;;4999545;28;20042;-43
2023/02/28 02:58:27;;;;;;;4.47;3.38;;;3.50;99.90;;;;;;5000644;28;20068;-42
2023/02/28 03:01:01;;;;;;;4.22;3.75;;;3.50;99.90;;;;;;4999721;28;20034;-42
2023/02/28 03:03:29;;;;;;;5.22;3.65;;;3.50;99.90;;;;;;5000084;28;20867;-43
2023/02/28 03:05:56;;;;;;;6.15;3.70;;;3.50;99.90;;;;;;4999283;28;20488;-42
2023/02/28 03:08:22;;;;;;;4.18;3.20;;;3.50;99.90;;;;;;4999509;28;20040;-43
2023/02/28 03:11:00;;;;;;;5.10;3.40;;;3.50;99.90;;;;;;4999450;28;20033;-42
2023/02/28 03:13:51;;;;;;;4.32;3.55;;;3.50;99.90;;;;;;5000385;28;20034;-43
2023/02/28 03:16:36;;;;;;;4.70;3.80;;;3.60;99.90;;;;;;5000170;28;20030;-43
2023/02/28 03:19:13;;;;;;;6.47;3.40;;;3.60;99.90;;;;;;4980866;28;20053;-42
2023/02/28 03:22:07;;;;;;;6.72;3.63;;;3.60;99.90;;;;;;4996579;28;20791;-42
2023/02/28 03:24:42;;;;;;;5.35;4.15;;;3.50;99.90;;;;;;5001123;28;20084;-42
2023/02/28 03:27:16;;;;;;;5.05;4.22;;;3.60;99.90;;;;;;5003521;28;20595;-43
2023/02/28 03:30:14;;;;;;;4.78;3.22;;;3.60;99.90;;;;;;5003514;28;20029;-42
2023/02/28 03:32:57;;;;;;;4.95;3.42;;;3.60;99.90;;;;;;5001465;28;20080;-42
2023/02/28 03:35:24;;;;;;;;;;;3.60;99.90;;;;;;5003583;28;20029;-42
2023/02/28 03:37:59;;;;;;;4.47;3.33;;;3.50;99.90;;;;;;5003791;28;19915;-43
2023/02/28 03:40:30;;;;;;;4.47;3.35;;;3.50;99.90;;;;;;5003857;28;20053;-43
2023/02/28 03:43:01;;;;;;;5.78;3.30;;;3.60;99.90;;;;;;5000039;28;20381;-43
2023/02/28 03:45:30;;;;;;;4.75;3.53;;;3.60;99.90;;;;;;5003398;28;20624;-43
2023/02/28 03:48:11;;;;;;;5.15;3.30;;;3.60;99.90;;;;;;5002600;28;20440;-43
2023/02/28 03:50:45;;;;;;;6.00;3.38;;;3.50;99.90;;;;;;5003050;28;20029;-43
2023/02/28 03:53:18;;;;;;;4.30;3.20;;;3.50;99.90;;;;;;5004116;28;20022;-42
2023/02/28 03:55:45;;;;;;;;;;;3.50;99.90;;;;;;5003261;28;20050;-42
2023/02/28 03:58:40;;;;;;;3.15;2.58;;;3.50;99.90;;;;;;5003268;28;19909;-42
2023/02/28 04:01:15;;;;;;;3.30;2.60;;;3.50;99.90;;;;;;5000453;28;20505;-43
2023/02/28 04:03:40;;;;;;;3.40;2.35;;;3.50;99.90;;;;;;5000457;28;20148;-44
2023/02/28 04:06:13;;;;;;;2.78;2.17;;;3.50;99.90;;;;;;5002969;28;20083;-44
2023/02/28 04:08:38;;;;;;;3.35;1.95;;;3.50;99.90;;;;;;5002327;28;20183;-42
2023/02/28 04:11:22;;;;;;;3.33;1.70;;;3.60;99.90;;;;;;5002991;28;20473;-43
2023/02/28 04:13:48;;;;;;;2.05;1.65;;;3.60;99.90;;;;;;5002368;28;20026;-43
2023/02/28 04:16:13;;;;;;;1.70;1.60;;;3.50;99.90;;;;;;5003832;28;20084;-42
2023/02/28 04:18:45;;;;;;;3.53;1.60;;;3.50;99.90;;;;;;5002803;28;20113;-42
2023/02/28 04:21:12;;;;;;;1.92;1.52;;;3.50;99.90;;;;;;5003140;28;20124;-43
2023/02/28 04:23:37;;;;;;;1.33;1.23;;;3.50;99.90;;;;;;5003099;28;20041;-43
2023/02/28 04:26:03;;;;;;;1.70;1.20;;;3.50;99.90;;;;;;5002612;28;20026;-43
2023/02/28 04:28:29;;;;;;;2.10;1.73;;;3.50;99.90;;;;;;5002919;28;20037;-43
2023/02/28 04:30:59;;;;;;;1.95;1.40;;;3.50;99.90;;;;;;5001599;28;20029;-43
2023/02/28 04:33:24;;;;;;;2.58;1.75;;;3.50;99.90;;;;;;5003263;28;20034;-43
2023/02/28 04:36:05;;;;;;;2.85;1.60;;;3.50;99.90;;;;;;5002575;28;20037;-43
2023/02/28 04:38:41;;;;;;;3.53;2.00;;;3.50;99.90;;;;;;5002736;28;20681;-44
2023/02/28 04:41:06;;;;;;;2.20;1.85;;;3.40;99.90;;;;;;5002801;28;20084;-41
2023/02/28 04:43:32;;;;;;;3.13;2.55;;;3.40;99.90;;;;;;5002976;28;20022;-43
2023/02/28 04:46:00;;;;;;;3.20;2.60;;;3.30;99.90;;;;;;5002549;28;20026;-41
2023/02/28 04:48:28;;;;;;;3.53;2.28;;;3.30;99.90;;;;;;5002320;28;20707;-37
2023/02/28 04:50:54;;;;;;;3.30;2.08;;;3.20;99.90;;;;;;5003566;28;20109;-43
2023/02/28 04:53:20;;;;;;;4.55;2.33;;;3.20;99.90;;;;;;5003081;28;20040;-42
2023/02/28 04:55:46;;;;;;;4.57;2.90;;;3.20;99.90;;;;;;5002437;28;20524;-43
2023/02/28 04:58:15;;;;;;;4.13;3.20;;;3.10;99.90;;;;;;5003330;28;20026;-43
2023/02/28 05:00:41;;;;;;;3.33;2.22;;;3.10;99.90;;;;;;5002157;28;20057;-41
2023/02/28 05:03:07;;;;;;;3.30;2.60;;;3.10;99.90;;;;;;5002752;28;20123;-42
2023/02/28 05:05:32;;;;;;;4.07;2.45;;;3.00;99.90;;;;;;5002927;28;20022;-42
2023/02/28 05:07:58;;;;;;;4.28;2.35;;;3.00;99.90;;;;;;5001877;28;20196;-42
2023/02/28 05:10:23;;;;;;;3.20;2.20;;;3.00;99.90;;;;;;5002260;28;20491;-42
2023/02/28 05:12:49;;;;;;;2.80;2.33;;;3.00;99.90;;;;;;5002535;28;20034;-42
2023/02/28 05:15:17;;;;;;;3.85;2.22;;;3.00;99.90;;;;;;5002026;28;20033;-43
2023/02/28 05:17:43;;;;;;;3.92;2.20;;;2.90;99.90;;;;;;5002520;28;20037;-43
2023/02/28 05:20:13;;;;;;;2.50;2.10;;;2.90;99.90;;;;;;5002106;28;20026;-42
2023/02/28 05:22:39;;;;;;;4.35;2.50;;;2.90;99.90;;;;;;5001911;28;20022;-43
2023/02/28 05:25:12;;;;;;;3.72;2.20;;;2.90;99.90;;;;;;5001726;28;20125;-43
2023/02/28 05:27:38;;;;;;;;;;;2.80;99.90;;;;;;5002003;28;20476;-43
2023/02/28 05:30:05;;;;;;;4.28;2.50;;;2.80;99.90;;;;;;5001509;28;19909;-44
2023/02/28 05:32:31;;;;;;;2.58;2.20;;;2.80;99.90;;;;;;5001769;28;20045;-43
2023/02/28 05:34:56;;;;;;;2.85;2.08;;;2.70;99.90;;;;;;5000510;28;20764;-44
2023/02/28 05:37:22;;;;;;;2.70;2.50;;;2.80;99.90;;;;;;5001708;28;20030;-43
2023/02/28 05:39:47;;;;;;;4.10;2.00;;;2.70;99.90;;;;;;5001191;28;20107;-43
2023/02/28 05:42:13;;;;;;;3.25;2.33;;;2.70;99.90;;;;;;5001944;28;20466;-43
2023/02/28 05:44:39;;;;;;;3.13;2.30;;;2.80;99.90;;;;;;5001440;28;20210;-43
2023/02/28 05:47:04;;;;;;;3.63;2.40;;;2.70;99.90;;;;;;5001676;28;20131;-43
2023/02/28 05:49:30;;;;;;;3.75;2.35;;;2.80;99.90;;;;;;5000843;28;20041;-42
2023/02/28 05:51:55;;;;;;;3.75;2.15;;;2.70;99.90;;;;;;5000782;28;20030;-42
2023/02/28 05:54:21;;;;;;;3.80;2.35;;;2.70;99.90;;;;;;5002040;28;20045;-43
2023/02/28 05:56:49;;;;;;;2.97;2.10;;;2.70;99.90;;;;;;5000405;28;20249;-43
2023/02/28 05:59:14;;;;;;;2.50;2.28;;;2.70;99.90;;;;;;5002453;28;20041;-43
2023/02/28 06:01:47;;;;;;;2.33;2.10;;;2.80;99.90;;;;;;5001455;28;20026;-43
2023/02/28 06:04:14;;;;;;;;;;;2.80;99.90;;;;;;5002023;28;20080;-44
2023/02/28 06:06:40;;;;;;;2.80;1.90;;;2.80;99.90;;;;;;5001188;28;19978;-43
2023/02/28 06:09:06;;;;;;;2.45;1.65;;;2.80;99.90;;;;;;5001327;28;20469;-42
2023/02/28 06:11:32;;;;;;;1.98;1.70;;;2.80;99.90;;;;;;5000609;28;20032;-43
2023/02/28 06:14:00;;;;;;;1.80;1.50;;;2.80;99.90;;;;;;5001008;28;20025;-43
2023/02/28 06:16:27;;;;;;;1.55;1.38;;;2.80;99.90;;;;;;5001054;28;20030;-42
2023/02/28 06:18:55;;;;;;;2.50;1.45;;;2.90;99.90;;;;;;5000879;28;20042;-42
2023/02/28 06:21:22;;;;;;;2.75;1.80;;;2.90;99.90;;;;;;5001061;28;20057;-42
2023/02/28 06:23:48;;;;;;;2.08;1.60;;;3.00;99.90;;;;;;5000298;28;20033;-43
2023/02/28 06:26:13;;;;;;;1.65;1.55;;;3.00;99.90;;;;;;5000508;28;20025;-43
2023/02/28 06:28:39;;;;;;;1.88;1.60;;;3.00;99.90;;;;;;5000400;28;20819;-41
2023/02/28 06:31:13;;;;;;;1.95;1.75;;;3.10;99.90;;;;;;5000151;28;20042;-40
2023/02/28 06:33:41;;;;;;;1.80;1.70;;;3.10;99.90;;;;;;4997910;28;20088;-43
2023/02/28 06:36:07;;;;;;;2.17;1.55;;;3.20;99.90;;;;;;5000344;28;20651;-42
2023/02/28 06:38:33;;;;;;;2.50;1.65;;;3.20;99.90;;;;;;5000029;28;20729;-42
2023/02/28 06:41:00;;;;;;;2.20;1.92;;;3.20;99.90;;;;;;4999466;28;20117;-41
2023/02/28 06:43:29;;;;;;;2.05;1.67;;;3.20;99.90;;;;;;4999164;28;20037;-41
2023/02/28 06:45:56;;;;;;;2.05;1.85;;;3.30;99.90;;;;;;4998490;28;20033;-43
2023/02/28 06:48:22;;;;;;;2.30;1.80;;;3.30;99.90;;;;;;4997920;28;20141;-43
2023/02/28 06:50:47;;;;;;;2.00;1.80;;;3.40;99.90;;;;;;4999239;28;20034;-43
2023/02/28 06:53:13;;;;;;;3.75;1.88;;;3.30;99.90;;;;;;4999519;28;20026;-42
2023/02/28 06:55:39;;;;;;;3.55;2.17;;;3.40;99.90;;;;;;4999678;28;20049;-43
2023/02/28 06:58:14;;;;;;;2.08;1.85;;;3.40;99.90;;;;;;4998369;28;20492;-44
2023/02/28 07:00:44;;;;;;;2.75;1.80;;;3.40;99.90;;;;;;4998530;28;20041;-43
2023/02/28 07:03:10;;;;;;;2.08;1.88;;;3.40;99.90;;;;;;5000070;28;20072;-43
2023/02/28 07:05:37;;;;;;;3.42;2.08;;;3.40;99.90;;;;;;4999305;28;20033;-43
2023/02/28 07:08:06;;;;;;;2.85;2.55;;;3.40;99.90;;;;;;4999309;28;20058;-43
2023/02/28 07:10:32;;;;;;;3.33;2.90;;;3.40;99.90;;;;;;4999516;28;20032;-43
2023/02/28 07:12:59;;;;;;;5.35;2.60;;;3.40;99.90;;;;;;4998305;28;20105;-43
2023/02/28 07:15:24;;;;;;;3.03;2.33;;;3.50;99.90;;;;;;5000246;28;20030;-42
2023/02/28 07:17:50;;;;;;;4.38;2.40;;;3.50;99.90;;;;;;4998750;28;20030;-43
2023/02/28 07:20:16;;;;;;;4.38;2.50;;;3.50;99.90;;;;;;4999443;28;20045;-44
2023/02/28 07:22:42;;;;;;;3.70;1.88;;;3.60;99.90;;;;;;4999511;28;20022;-41
2023/02/28 07:25:11;;;;;;;4.70;1.98;;;3.60;99.90;;;;;;5000195;28;20703;-43
2023/02/28 07:27:36;;;;;;;2.55;2.05;;;3.70;99.90;;;;;;4998914;28;20037;-42
2023/02/28 07:30:05;;;;;;;4.28;2.15;;;3.70;99.90;;;;;;4999639;28;20305;-42
2023/02/28 07:32:31;;;;;;;3.25;2.17;;;3.70;99.90;;;;;;4999991;28;20049;-43
2023/02/28 07:34:56;;;;;;;4.68;1.88;;;3.80;99.90;;;;;;5000637;28;20053;-43
2023/02/28 07:37:22;;;;;;;3.22;2.17;;;3.80;99.90;;;;;;5000018;28;20029;-43
2023/02/28 07:39:47;;;;;;;3.50;2.38;;;3.80;99.90;;;;;;4999241;28;20846;-42
2023/02/28 07:42:13;;;;;;;3.28;2.28;;;3.90;99.90;;;;;;4997033;28;20473;-43
2023/02/28 07:44:40;;;;;;;4.05;2.28;;;3.90;99.90;;;;;;4993869;28;20030;-43
2023/02/28 07:47:10;;;;;;;2.72;2.08;;;3.90;99.90;;;;;;4994800;28;20602;-43
2023/02/28 07:49:39;;;;;;;2.67;2.20;;;3.90;99.90;;;;;;4998171;28;20017;-43
2023/02/28 07:52:06;;;;;;;4.10;2.00;;;4.00;99.90;;;;;;4999634;28;20109;-42
2023/02/28 07:54:32;;;;;;;3.10;2.25;;;4.00;99.90;;;;;;4999700;28;20527;-42
2023/02/28 07:56:57;;;;;;;3.40;2.00;;;4.00;99.90;;;;;;4999063;28;20042;-42
2023/02/28 07:59:23;;;;;;;1.80;1.70;;;4.00;99.90;;;;;;4999532;28;20026;-41
2023/02/28 08:01:50;;;;;;;5.07;3.60;;;4.00;99.50;;;;;;4998414;28;20033;-42
2023/02/28 08:04:16;;;;;;;3.60;2.78;;;4.00;99.30;;;;;;5000203;28;20038;-42
2023/02/28 08:06:44;;;;;;;2.55;2.35;;;4.00;99.40;;;;;;4999204;28;20045;-42
2023/02/28 08:09:11;;;;;;;2.63;2.40;;;4.00;99.30;;;;;;4999106;28;20041;-43
2023/02/28 08:11:36;;;;;;;6.13;3.17;;;4.00;99.20;;;;;;4999365;28;20436;-44
2023/02/28 08:14:02;;;;;;;2.95;2.10;;;3.90;98.80;;;;;;5002976;28;20040;-43
2023/02/28 08:16:38;;;;;;;2.70;2.30;;;3.90;98.60;;;;;;5002502;28;20084;-42
2023/02/28 08:19:04;;;;;;;2.25;1.80;;;3.80;98.70;;;;;;5002816;28;20037;-43
2023/02/28 08:21:29;;;;;;;2.90;2.30;;;3.80;98.80;;;;;;5002788;28;20777;-43
2023/02/28 08:23:56;;;;;;;4.35;2.15;;;3.80;98.70;;;;;;5002279;28;20029;-42
2023/02/28 08:26:22;;;;;;;2.60;1.92;;;3.80;98.50;;;;;;5001536;28;20022;-43
2023/02/28 08:28:48;;;;;;;3.42;2.30;;;3.80;98.20;;;;;;5002129;28;20037;-44
2023/02/28 08:31:15;;;;;;;2.67;2.20;;;3.80;97.70;;;;;;5002261;28;20402;-43
2023/02/28 08:33:42;;;;;;;3.00;2.15;;;3.80;97.40;;;;;;5002406;28;20061;-42
2023/02/28 08:36:09;;;;;;;2.95;2.47;;;3.80;97.20;;;;;;5002201;28;20029;-43
2023/02/28 08:38:35;;;;;;;4.10;2.10;;;3.90;97.30;;;;;;4997934;28;20052;-43
2023/02/28 08:41:06;;;;;;;4.13;2.30;;;3.90;97.10;;;;;;5001538;28;20034;-43
2023/02/28 08:43:33;;;;;;;2.30;1.95;;;3.90;97.00;;;;;;5002915;28;20504;-42
2023/02/28 08:45:59;;;;;;;2.45;1.95;;;3.90;97.00;;;;;;5001626;28;20026;-43
2023/02/28 08:48:29;;;;;;;2.35;2.00;;;3.90;96.90;;;;;;5002440;28;20045;-43
2023/02/28 08:51:00;;;;;;;3.00;2.22;;;3.90;96.20;;;;;;5001668;28;20026;-43
2023/02/28 08:53:26;;;;;;;2.28;1.88;;;3.90;95.40;;;;;;5002382;28;20025;-43
2023/02/28 08:56:09;;;;;;;3.53;2.10;;;3.90;95.40;;;;;;5000986;28;20155;-42
2023/02/28 08:58:35;;;;;;;2.80;2.20;;;4.00;95.50;;;;;;5000128;28;20041;-43
2023/02/28 09:01:11;;;;;;;2.58;2.15;;;4.00;95.40;;;;;;5001689;28;20030;-42
2023/02/28 09:03:37;;;;;;;2.30;1.88;;;4.00;94.70;;;;;;4995014;28;20025;-43
2023/02/28 09:06:06;;;;;;;2.70;2.15;;;4.00;94.00;;;;;;5001583;28;20145;-43
2023/02/28 09:08:31;;;;;;;2.83;2.00;;;4.00;94.00;;;;;;5001770;28;20037;-43
2023/02/28 09:10:58;;;;;;;2.25;2.05;;;4.00;93.90;;;;;;5001530;28;20034;-43
2023/02/28 09:13:27;;;;;;;2.47;2.22;;;4.10;93.60;;;;;;5001670;28;20117;-43
2023/02/28 09:15:53;;;;;;;2.70;1.95;;;4.00;93.50;;;;;;5001377;28;20026;-43
2023/02/28 09:18:22;;;;;;;2.60;1.60;;;4.10;93.20;;;;;;5002078;28;20517;-42
2023/02/28 09:20:47;;;;;;;2.00;1.80;;;4.10;92.60;;;;;;5001146;28;20057;-44
2023/02/28 09:23:16;;;;;;;2.20;1.70;;;4.10;92.60;;;;;;5001780;28;20533;-41
2023/02/28 09:25:50;;;;;;;2.58;1.50;;;4.10;92.10;;;;;;5001444;28;20030;-43
2023/02/28 09:28:17;;;;;;;3.25;1.70;;;4.20;91.20;;;;;;5000968;28;20029;-43
2023/02/28 09:30:45;;;;;;;2.25;1.75;;;4.20;91.20;;;;;;5000178;28;20029;-43
2023/02/28 09:33:12;;;;;;;2.13;1.65;;;4.20;90.90;;;;;;5001736;28;20389;-42
2023/02/28 09:35:37;;;;;;;2.50;2.00;;;4.30;90.60;;;;;;5000596;28;20033;-43
2023/02/28 09:38:03;;;;;;;2.47;1.92;;;4.30;89.50;;;;;;5001158;28;20021;-43
2023/02/28 09:40:30;;;;;;;2.00;1.80;;;4.40;88.50;;;;;;5001487;28;20017;-42
2023/02/28 09:42:58;;;;;;;1.80;1.67;;;4.40;87.80;;;;;;4998262;28;20117;-43
2023/02/28 09:45:40;;;;;;;2.97;1.20;;;4.40;87.50;;;;;;5001896;28;20799;-43
2023/02/28 09:48:16;;;;;;;3.08;1.50;;;4.40;88.40;;;;;;5000566;28;20042;-43
2023/02/28 09:50:57;;;;;;;2.15;1.50;;;4.40;88.80;;;;;;4995291;28;20029;-43
2023/02/28 09:53:33;;;;;;;1.75;1.48;;;4.50;88.80;;;;;;4999075;28;20034;-44
2023/02/28 09:56:04;;;;;;;1.80;1.60;;;4.50;87.70;;;;;;4991492;28;20056;-43
2023/02/28 09:58:37;;;;;;;2.00;1.80;;;4.50;87.40;;;;;;4986807;28;20064;-43
2023/02/28 10:01:38;;;;;;;2.00;1.70;;;4.50;87.80;;;;;;5001326;28;20076;-42
2023/02/28 10:04:30;;;;;;;3.05;1.60;;;4.50;85.10;;;;;;5000122;28;20497;-44
2023/02/28 10:06:59;;;;;;;2.10;1.67;;;4.50;85.20;;;;;;5000126;28;20097;-43
2023/02/28 10:09:29;;;;;;;2.38;1.63;;;4.50;85.50;;;;;;5000389;28;20873;-43
2023/02/28 10:12:04;;;;;;;2.47;1.85;;;4.50;85.90;;;;;;5001019;28;20032;-43
2023/02/28 10:14:33;;;;;;;1.55;1.45;;;4.50;86.20;;;;;;5001544;28;20494;-43
2023/02/28 10:17:03;;;;;;;3.13;1.60;;;4.60;86.50;;;;;;4999736;28;20030;-42
2023/02/28 10:19:50;;;;;;;3.72;1.60;;;4.60;86.40;;;;;;5000536;28;20393;-44
2023/02/28 10:22:38;;;;;;;1.92;1.50;;;4.70;85.70;;;;;;5000045;28;20038;-43
2023/02/28 10:25:22;;;;;;;2.03;1.60;;;4.80;86.40;;;;;;4998418;28;20133;-43
2023/02/28 10:27:50;;;;;;;1.88;1.40;;;4.80;85.50;;;;;;4999443;28;20038;-43
2023/02/28 10:30:15;;;;;;;1.58;1.45;;;4.80;85.30;;;;;;4999435;28;20029;-42
2023/02/28 10:32:49;;;;;;;1.65;1.40;;;4.90;84.80;;;;;;4999680;28;20764;-43
2023/02/28 10:35:24;;;;;;;2.42;1.77;;;4.90;85.30;;;;;;4999460;28;20036;-43
2023/02/28 10:37:56;;;;;;;1.83;1.50;;;5.00;84.80;;;;;;4999344;28;20564;-44
2023/02/28 10:40:21;;;;;;;1.75;1.55;;;5.00;83.80;;;;;;5000669;28;20432;-42
2023/02/28 10:43:12;;;;;;;2.20;1.50;;;5.00;84.00;;;;;;4999794;28;20547;-44
2023/02/28 10:45:38;;;;;;;1.45;1.20;;;5.10;83.90;;;;;;4999017;28;20032;-43
2023/02/28 10:48:26;;;;;;;1.92;1.50;;;5.10;83.70;;;;;;4999727;28;20042;-43
2023/02/28 10:50:56;;;;;;;2.85;1.30;;;5.10;84.10;;;;;;4998968;28;20037;-42
2023/02/28 10:53:23;;;;;;;1.40;1.30;;;5.20;84.40;;;;;;5000273;28;20108;-43
2023/02/28 10:56:03;;;;;;;1.65;1.55;;;5.20;84.20;;;;;;5005222;28;20061;-44
2023/02/28 10:58:50;;;;;;;2.40;1.55;;;5.20;83.40;;;;;;5000504;28;20088;-43
2023/02/28 11:01:17;;;;;;;2.03;1.83;;;5.20;83.70;;;;;;5000501;28;20033;-41
2023/02/28 11:03:43;;;;;;;1.52;1.42;;;5.30;83.80;;;;;;5000074;28;20029;-42
2023/02/28 11:06:22;;;;;;;2.92;1.45;;;5.30;84.00;;;;;;4999271;28;20026;-43
2023/02/28 11:08:54;;;;;;;2.03;1.30;;;5.30;84.20;;;;;;4999664;28;20079;-41
2023/02/28 11:11:21;;;;;;;2.30;1.70;;;5.40;84.30;;;;;;5000366;28;20763;-43
2023/02/28 11:13:51;;;;;;;1.70;1.60;;;5.40;85.00;;;;;;5000008;28;20121;-43
2023/02/28 11:16:17;;;;;;;4.55;2.53;;;5.40;83.90;;;;;;4999750;28;20026;-43
2023/02/28 11:18:54;;;;;;;4.80;2.55;;;5.50;83.40;;;;;;5000486;28;20037;-43
2023/02/28 11:21:29;;;;;;;3.50;2.13;;;5.50;82.30;;;;;;5000524;28;20022;-43
2023/02/28 11:24:37;;;;;;;4.35;2.20;;;5.50;82.20;;;;;;4999620;28;20026;-42
2023/02/28 11:27:03;;;;;;;3.97;1.80;;;5.50;82.10;;;;;;4997736;28;20071;-42
2023/02/28 11:29:31;;;;;;;3.08;2.00;;;5.50;82.10;;;;;;4998805;28;20584;-44
2023/02/28 11:32:20;;;;;;;1.95;1.70;;;5.50;81.90;;;;;;4999762;28;20133;-43
2023/02/28 11:35:00;;;;;;;3.00;2.00;;;5.50;80.50;;;;;;4999336;28;20022;-42
2023/02/28 11:37:28;;;;;;;2.08;1.73;;;5.50;80.00;;;;;;5000253;28;20025;-43
2023/02/28 11:39:54;;;;;;;2.35;1.90;;;5.40;79.90;;;;;;4998955;28;20022;-43
2023/02/28 11:42:40;;;;;;;4.97;2.10;;;5.40;79.40;;;;;;4999903;28;20026;-44
2023/02/28 11:45:15;;;;;;;2.95;2.25;;;5.40;79.70;;;;;;5000362;28;20022;-42
2023/02/28 11:47:55;;;;;;;3.42;2.08;;;5.50;79.90;;;;;;5002442;28;20125;-43
2023/02/28 11:50:29;;;;;;;3.53;1.83;;;5.50;80.40;;;;;;5003142;28;20037;-44
2023/02/28 11:53:01;;;;;;;2.53;1.67;;;5.60;80.70;;;;;;5002383;28;20181;-43
2023/02/28 11:55:39;;;;;;;2.65;1.60;;;5.70;80.60;;;;;;5002857;28;20117;-43
2023/02/28 11:58:25;;;;;;;2.42;1.80;;;5.80;79.80;;;;;;5002246;28;20080;-42
2023/02/28 12:01:06;;;;;;;3.08;1.88;;;5.80;79.40;;;;;;5002634;28;20104;-42
2023/02/28 12:03:42;;;;;;;2.00;1.80;;;5.80;79.20;;;;;;5003097;28;20040;-42
2023/02/28 12:06:24;;;;;;;2.92;1.90;;;5.80;79.30;;;;;;5004297;28;20112;-43
2023/02/28 12:09:16;;;;;;;3.35;2.40;;;5.90;79.40;;;;;;5002779;28;20077;-42
2023/02/28 12:12:02;;;;;;;3.53;2.28;;;5.90;79.40;;;;;;4983429;28;20027;-42
2023/02/28 12:14:53;;;;;;;2.25;1.95;;;5.90;79.50;;;;;;5000759;28;20041;-42
2023/02/28 12:17:36;;;;;;;2.95;1.95;;;6.00;79.40;;;;;;5002680;28;20116;-43
2023/02/28 12:20:20;;;;;;;2.70;1.92;;;6.00;78.70;;;;;;5001792;28;20456;-44
2023/02/28 12:23:21;;;;;;;2.63;2.10;;;6.00;77.70;;;;;;5001966;28;20088;-43
2023/02/28 12:26:17;;;;;;;2.53;1.90;;;6.00;77.50;;;;;;4991463;28;20129;-44
2023/02/28 12:28:49;;;;;;;3.33;2.30;;;6.00;77.40;;;;;;5001853;28;20056;-44
2023/02/28 12:31:24;;;;;;;2.88;2.10;;;6.00;76.00;;;;;;5000696;28;20030;-42
2023/02/28 12:34:18;;;;;;;2.28;2.05;;;5.90;75.90;;;;;;5002227;28;20034;-44
2023/02/28 12:36:48;;;;;;;2.72;2.20;;;6.00;75.70;;;;;;4999170;28;20104;-43
2023/02/28 12:39:28;;;;;;;3.33;2.63;;;5.90;75.00;;;;;;5003009;28;20021;-42
2023/02/28 12:42:12;;;;;;;3.25;2.20;;;6.00;74.30;;;;;;5001793;28;20687;-43
2023/02/28 12:44:45;;;;;;;3.08;2.33;;;6.00;74.30;;;;;;4998740;28;20029;-43
2023/02/28 12:47:16;;;;;;;2.13;1.92;;;6.00;74.90;;;;;;5000334;28;20037;-43
2023/02/28 12:50:07;;;;;;;2.47;2.10;;;6.00;75.40;;;;;;5002408;28;20080;-42
2023/02/28 12:53:04;;;;;;;3.60;2.60;;;6.10;75.80;;;;;;5002296;28;20032;-43
2023/02/28 12:55:50;;;;;;;2.63;2.20;;;6.10;74.90;;;;;;4996610;28;20054;-44
2023/02/28 12:58:32;;;;;;;3.55;2.70;;;6.10;73.80;;;;;;4985939;28;20034;-43
2023/02/28 13:01:03;;;;;;;2.53;2.15;;;6.10;73.80;;;;;;5001229;28;20477;-43
2023/02/28 13:03:47;;;;;;;3.97;2.20;;;6.10;74.00;;;;;;5002742;28;20088;-43
2023/02/28 13:06:35;;;;;;;2.55;2.10;;;6.20;74.70;;;;;;5001370;28;20155;-43
2023/02/28 13:09:09;;;;;;;2.53;2.15;;;6.30;74.50;;;;;;5002078;28;20029;-43
2023/02/28 13:11:46;;;;;;;2.55;1.90;;;6.30;71.90;;;;;;5001631;28;20192;-42
2023/02/28 13:14:32;;;;;;;2.42;1.92;;;6.30;71.60;;;;;;5002732;28;20064;-44
2023/02/28 13:17:08;;;;;;;4.00;2.55;;;6.30;71.10;;;;;;5001146;28;20049;-43
2023/02/28 13:19:52;;;;;;;3.10;2.17;;;6.30;71.50;;;;;;5001926;28;20087;-44